Time;durP1;ratioP1;P1;durP2;ratioP2;P2;SDS_P1;SDS_P2;PMS_P1;PMS_P2;Temp;Humidity;BMP_temperature;BMP_pressure;BME280_temperature;BME280_humidity;BME280_pressure;Samples;Min_cycle;Max_cycle;Signal;HPM_P1;HPM_P2
2023/03/30 00:01:36;;;;;;;;;;;21.00;92.20;;;;;;5080274;28;19965;-68
2023/03/30 00:04:03;;;;;;;;;;;20.90;92.00;;;;;;5097224;28;19914;-69
2023/03/30 00:06:29;;;;;;;;;;;21.00;92.30;;;;;;5099777;28;20281;-71
2023/03/30 00:08:56;;;;;;;;;;;21.00;92.30;;;;;;5097876;28;19911;-70
2023/03/30 00:11:23;;;;;;;;;;;21.10;92.30;;;;;;5093257;28;19912;-68
2023/03/30 00:13:51;;;;;;;;;;;21.20;92.30;;;;;;5089584;28;20254;-70
2023/03/30 00:16:18;;;;;;;;;;;21.20;92.30;;;;;;5096743;28;20295;-72
2023/03/30 00:18:44;;;;;;;;;;;21.40;92.00;;;;;;5094105;28;20369;-70
2023/03/30 00:21:11;;;;;;;;;;;21.40;92.10;;;;;;5091879;28;19954;-69
2023/03/30 00:23:38;;;;;;;;;;;21.50;91.80;;;;;;5095748;28;19912;-70
2023/03/30 00:26:06;;;;;;;;;;;21.60;91.70;;;;;;5098653;28;19915;-71
2023/03/30 00:28:33;;;;;;;;;;;21.60;92.00;;;;;;5094719;28;19919;-70
2023/03/30 00:31:00;;;;;;;;;;;21.70;91.40;;;;;;5095382;28;19934;-71
2023/03/30 00:33:27;;;;;;;;;;;21.70;91.30;;;;;;5092448;28;20387;-68
2023/03/30 00:35:54;;;;;;;;;;;21.80;91.60;;;;;;5084891;28;19911;-70
2023/03/30 00:38:21;;;;;;;;;;;21.90;91.20;;;;;;5094883;28;20253;-69
2023/03/30 00:40:51;;;;;;;;;;;21.80;90.90;;;;;;5084538;28;19912;-70
2023/03/30 00:43:18;;;;;;;;;;;21.90;91.20;;;;;;5096984;28;19908;-70
2023/03/30 00:45:50;;;;;;;;;;;21.90;90.90;;;;;;5071193;28;20152;-69
2023/03/30 00:48:20;;;;;;;;;;;22.00;91.00;;;;;;5079379;27;19912;-70
2023/03/30 00:50:52;;;;;;;;;;;22.00;90.60;;;;;;5097898;28;20132;-71
2023/03/30 00:53:24;;;;;;;;;;;22.10;90.70;;;;;;5077465;28;20349;-70
2023/03/30 00:55:52;;;;;;;;;;;22.20;90.60;;;;;;5093461;28;19915;-69
2023/03/30 00:58:20;;;;;;;;;;;22.30;91.00;;;;;;5094907;28;19919;-70
2023/03/30 01:00:47;;;;;;;;;;;22.40;90.40;;;;;;5086164;28;19954;-70
2023/03/30 01:03:21;;;;;;;;;;;22.50;90.40;;;;;;5098827;28;19914;-68
2023/03/30 01:05:48;;;;;;;;;;;22.60;90.30;;;;;;5098052;28;19942;-70
2023/03/30 01:08:19;;;;;;;;;;;22.60;89.40;;;;;;5095971;28;19915;-68
2023/03/30 01:10:45;;;;;;;;;;;22.70;89.80;;;;;;5088505;28;19908;-69
2023/03/30 01:13:13;;;;;;;;;;;22.80;89.60;;;;;;5097937;28;19950;-69
2023/03/30 01:15:46;;;;;;;;;;;22.80;89.70;;;;;;5098352;28;19908;-69
2023/03/30 01:18:22;;;;;;;;;;;22.90;88.50;;;;;;5095533;28;19912;-69
2023/03/30 01:20:52;;;;;;;;;;;23.00;87.40;;;;;;5079954;28;20002;-70
2023/03/30 01:23:26;;;;;;;;;;;23.00;87.50;;;;;;5091781;28;19912;-69
2023/03/30 01:25:55;;;;;;;;;;;23.10;88.10;;;;;;5088420;28;19916;-68
2023/03/30 01:28:21;;;;;;;;;;;23.20;87.60;;;;;;5098638;28;19960;-68
2023/03/30 01:30:51;;;;;;;;;;;23.30;85.80;;;;;;5098509;27;19912;-70
2023/03/30 01:33:30;;;;;;;;;;;23.40;86.60;;;;;;5096831;28;20671;-71
2023/03/30 01:36:06;;;;;;;;;;;23.60;86.80;;;;;;5095800;27;20688;-68
2023/03/30 01:38:44;;;;;;;;;;;23.80;85.70;;;;;;5098010;27;19916;-69
2023/03/30 01:41:14;;;;;;;;;;;23.80;85.20;;;;;;5092354;28;19966;-68
2023/03/30 01:43:41;;;;;;;;;;;24.00;85.00;;;;;;5097659;28;19919;-69
2023/03/30 01:46:24;;;;;;;;;;;24.10;82.60;;;;;;5096942;28;20483;-69
2023/03/30 01:49:09;;;;;;;;;;;24.10;81.90;;;;;;5093177;28;19908;-69
2023/03/30 01:51:40;;;;;;;;;;;24.20;80.90;;;;;;5092526;28;19908;-70
2023/03/30 01:54:18;;;;;;;;;;;24.40;82.70;;;;;;5096678;28;19908;-70
2023/03/30 01:56:54;;;;;;;;;;;24.60;81.70;;;;;;5097947;28;19911;-68
2023/03/30 01:59:26;;;;;;;;;;;24.80;82.40;;;;;;5093754;28;20322;-69
2023/03/30 02:01:59;;;;;;;;;;;24.90;80.50;;;;;;5086250;28;19944;-70
2023/03/30 02:04:26;;;;;;;;;;;25.00;79.60;;;;;;5095655;28;19919;-68
2023/03/30 02:06:55;;;;;;;;;;;25.10;81.90;;;;;;5100971;28;19949;-72
2023/03/30 02:09:23;;;;;;;;;;;25.30;79.90;;;;;;5100834;28;19908;-70
2023/03/30 02:11:52;;;;;;;;;;;25.30;79.20;;;;;;5102128;28;19915;-70
2023/03/30 02:14:21;;;;;;;;;;;25.30;79.40;;;;;;5100678;28;19907;-69
2023/03/30 02:16:50;;;;;;;;;;;25.40;77.90;;;;;;5101998;28;19908;-70
2023/03/30 02:19:18;;;;;;;;;;;25.50;78.90;;;;;;5093163;28;20268;-70
2023/03/30 02:21:45;;;;;;;;;;;25.60;78.40;;;;;;5081947;28;19912;-69
2023/03/30 02:24:16;;;;;;;;;;;25.70;78.60;;;;;;5080608;28;19916;-68
2023/03/30 02:26:47;;;;;;;;;;;25.80;78.60;;;;;;5081327;28;19948;-69
2023/03/30 02:29:14;;;;;;;;;;;26.10;76.90;;;;;;5085977;28;20737;-69
2023/03/30 02:31:42;;;;;;;;;;;26.20;76.70;;;;;;5093242;28;19995;-69
2023/03/30 02:34:18;;;;;;;;;;;26.40;76.70;;;;;;5080032;28;20412;-68
2023/03/30 02:37:00;;;;;;;;;;;26.30;75.50;;;;;;5091587;28;20002;-69
2023/03/30 02:39:54;;;;;;;;;;;26.50;74.60;;;;;;5101311;28;19920;-70
2023/03/30 02:42:35;;;;;;;;;;;26.60;74.30;;;;;;5099554;28;19908;-69
2023/03/30 02:45:05;;;;;;;;;;;26.90;74.50;;;;;;5100804;28;20268;-69
2023/03/30 02:47:50;;;;;;;;;;;27.20;72.30;;;;;;5101717;28;19998;-69
2023/03/30 02:50:21;;;;;;;;;;;27.40;71.40;;;;;;5083960;28;19908;-71
2023/03/30 02:52:53;;;;;;;;;;;27.80;72.80;;;;;;5080553;28;19920;-70
2023/03/30 02:55:22;;;;;;;;;;;28.60;69.60;;;;;;5078734;28;20005;-70
2023/03/30 02:57:49;;;;;;;;;;;29.80;68.50;;;;;;5062164;28;20543;-69
2023/03/30 03:00:37;;;;;;;;;;;30.90;66.70;;;;;;5094596;28;19954;-68
2023/03/30 03:03:07;;;;;;;;;;;31.90;63.80;;;;;;5099239;28;19907;-69
2023/03/30 03:05:34;;;;;;;;;;;33.30;60.50;;;;;;5100789;28;19924;-69
2023/03/30 03:08:01;;;;;;;;;;;34.80;58.90;;;;;;5100699;28;20004;-69
2023/03/30 03:10:28;;;;;;;;;;;35.40;57.50;;;;;;5099713;28;20573;-67
2023/03/30 03:12:55;;;;;;;;;;;35.80;54.30;;;;;;5100407;28;20018;-70
2023/03/30 03:15:22;;;;;;;;;;;36.40;54.10;;;;;;5089354;28;19919;-71
2023/03/30 03:17:50;;;;;;;;;;;37.10;53.80;;;;;;5081996;28;19912;-71
2023/03/30 03:20:17;;;;;;;;;;;36.90;51.60;;;;;;5092765;28;19944;-69
2023/03/30 03:22:44;;;;;;;;;;;36.50;51.90;;;;;;5097764;28;20387;-69
2023/03/30 03:25:11;;;;;;;;;;;36.40;51.10;;;;;;5093997;28;20016;-69
2023/03/30 03:27:37;;;;;;;;;;;36.90;51.30;;;;;;5095269;28;19998;-69
2023/03/30 03:30:04;;;;;;;;;;;36.90;50.20;;;;;;5088887;28;19908;-69
2023/03/30 03:32:31;;;;;;;;;;;36.80;51.30;;;;;;5099883;28;19908;-70
2023/03/30 03:34:58;;;;;;;;;;;37.00;49.50;;;;;;5097496;28;19926;-71
2023/03/30 03:37:25;;;;;;;;;;;37.00;49.30;;;;;;5088498;28;20002;-70
2023/03/30 03:39:51;;;;;;;;;;;37.30;49.40;;;;;;5097251;28;19984;-70
2023/03/30 03:42:18;;;;;;;;;;;37.30;49.70;;;;;;5098864;28;19908;-70
2023/03/30 03:44:46;;;;;;;;;;;37.60;48.10;;;;;;5099933;28;20054;-69
2023/03/30 03:47:13;;;;;;;;;;;37.80;48.90;;;;;;5080788;28;20372;-70
2023/03/30 03:49:40;;;;;;;;;;;38.70;48.40;;;;;;5099657;28;20433;-70
2023/03/30 03:52:07;;;;;;;;;;;39.50;48.70;;;;;;5097723;28;19922;-70
2023/03/30 03:54:33;;;;;;;;;;;40.10;47.40;;;;;;5098543;28;20314;-69
2023/03/30 03:57:00;;;;;;;;;;;38.90;47.30;;;;;;5099193;28;19912;-69
2023/03/30 03:59:27;;;;;;;;;;;38.10;48.00;;;;;;5088910;28;19912;-68
2023/03/30 04:01:54;;;;;;;;;;;37.90;47.80;;;;;;5099559;28;19915;-70
2023/03/30 04:04:21;;;;;;;;;;;38.40;49.30;;;;;;5062340;28;19923;-70
2023/03/30 04:06:47;;;;;;;;;;;38.90;48.40;;;;;;5095805;28;19951;-71
2023/03/30 04:09:14;;;;;;;;;;;38.40;47.80;;;;;;5098334;28;19954;-70
2023/03/30 04:11:41;;;;;;;;;;;38.60;52.70;;;;;;5099545;28;19912;-71
2023/03/30 04:14:08;;;;;;;;;;;39.60;52.80;;;;;;5099260;28;19940;-70
2023/03/30 04:16:36;;;;;;;;;;;39.50;52.40;;;;;;5096721;28;20429;-70
2023/03/30 04:19:02;;;;;;;;;;;39.60;53.10;;;;;;5083881;28;19912;-70
2023/03/30 04:21:30;;;;;;;;;;;40.10;51.90;;;;;;5095591;28;19912;-70
2023/03/30 04:23:57;;;;;;;;;;;40.50;53.10;;;;;;5098828;28;19912;-68
2023/03/30 04:26:27;;;;;;;;;;;40.10;51.90;;;;;;5095659;28;20256;-69
2023/03/30 04:28:54;;;;;;;;;;;40.60;52.40;;;;;;5097973;28;20360;-70
2023/03/30 04:31:21;;;;;;;;;;;40.90;51.70;;;;;;5078365;28;19912;-70
2023/03/30 04:33:52;;;;;;;;;;;39.50;53.20;;;;;;5082370;28;19908;-69
2023/03/30 04:36:19;;;;;;;;;;;38.00;54.50;;;;;;5088306;28;20011;-70
2023/03/30 04:39:07;;;;;;;;;;;36.80;54.60;;;;;;5092675;28;19991;-69
2023/03/30 04:41:34;;;;;;;;;;;37.10;54.40;;;;;;5089756;28;19912;-70
2023/03/30 04:44:05;;;;;;;;;;;37.70;55.10;;;;;;5095575;28;19911;-70
2023/03/30 04:46:32;;;;;;;;;;;36.90;54.10;;;;;;5090988;28;20412;-68
2023/03/30 04:48:59;;;;;;;;;;;36.60;57.20;;;;;;5091149;28;20371;-69
2023/03/30 04:51:27;;;;;;;;;;;37.10;54.30;;;;;;5094236;28;20236;-69
2023/03/30 04:53:54;;;;;;;;;;;37.70;53.90;;;;;;5096804;28;20509;-70
2023/03/30 04:56:21;;;;;;;;;;;38.80;53.50;;;;;;5096107;28;19951;-70
2023/03/30 04:58:47;;;;;;;;;;;39.00;53.60;;;;;;5088270;28;19919;-70
2023/03/30 05:01:14;;;;;;;;;;;39.00;54.30;;;;;;5080335;28;20007;-69
2023/03/30 05:03:41;;;;;;;;;;;38.80;52.80;;;;;;5088875;28;19972;-69
2023/03/30 05:06:08;;;;;;;;;;;39.00;52.30;;;;;;5099106;28;20428;-68
2023/03/30 05:08:34;;;;;;;;;;;38.00;53.40;;;;;;5097083;28;19912;-70
2023/03/30 05:11:03;;;;;;;;;;;36.10;55.00;;;;;;5098067;28;19914;-69
2023/03/30 05:13:30;;;;;;;;;;;34.90;57.30;;;;;;5095063;28;20431;-68
2023/03/30 05:15:57;;;;;;;;;;;34.50;59.50;;;;;;5091218;28;20218;-67
2023/03/30 05:18:24;;;;;;;;;;;35.60;55.50;;;;;;5097144;28;19964;-69
2023/03/30 05:20:51;;;;;;;;;;;36.30;54.90;;;;;;5094120;28;19961;-70
2023/03/30 05:23:17;;;;;;;;;;;37.20;55.30;;;;;;5095597;28;19908;-69
2023/03/30 05:25:49;;;;;;;;;;;37.90;53.10;;;;;;5094241;28;20284;-69
2023/03/30 05:28:18;;;;;;;;;;;38.00;53.80;;;;;;5097586;28;19953;-69
2023/03/30 05:30:45;;;;;;;;;;;38.50;53.00;;;;;;5092649;28;20252;-67
2023/03/30 05:33:12;;;;;;;;;;;39.10;52.80;;;;;;5097203;28;20371;-67
2023/03/30 05:35:39;;;;;;;;;;;39.70;51.70;;;;;;5096593;28;20003;-69
2023/03/30 05:38:06;;;;;;;;;;;39.90;50.80;;;;;;5097472;28;19955;-67
2023/03/30 05:40:32;;;;;;;;;;;39.60;52.10;;;;;;5080181;28;19920;-67
2023/03/30 05:42:59;;;;;;;;;;;39.80;51.70;;;;;;5086207;28;20343;-69
2023/03/30 05:45:26;;;;;;;;;;;39.80;51.90;;;;;;5089290;28;20050;-68
2023/03/30 05:47:53;;;;;;;;;;;39.90;51.80;;;;;;5095629;28;20002;-69
2023/03/30 05:50:20;;;;;;;;;;;40.00;53.20;;;;;;5096052;28;20647;-70
2023/03/30 05:52:47;;;;;;;;;;;40.50;51.80;;;;;;5094041;28;19919;-69
2023/03/30 05:55:14;;;;;;;;;;;40.60;49.30;;;;;;5084563;28;20366;-68
2023/03/30 05:57:41;;;;;;;;;;;39.60;51.00;;;;;;5096297;28;19956;-70
2023/03/30 06:00:09;;;;;;;;;;;39.40;52.10;;;;;;5097526;28;19933;-68
2023/03/30 06:02:36;;;;;;;;;;;39.70;51.50;;;;;;5094538;28;19925;-71
2023/03/30 06:05:02;;;;;;;;;;;40.20;52.00;;;;;;5080911;28;20351;-69
2023/03/30 06:07:29;;;;;;;;;;;40.20;51.30;;;;;;5080720;28;20307;-72
2023/03/30 06:09:58;;;;;;;;;;;40.00;47.90;;;;;;5084516;28;20375;-68
2023/03/30 06:12:25;;;;;;;;;;;39.80;45.70;;;;;;5093375;28;20416;-70
2023/03/30 06:14:52;;;;;;;;;;;39.70;46.00;;;;;;5082753;28;20098;-69
2023/03/30 06:17:18;;;;;;;;;;;40.20;46.50;;;;;;5097688;28;19912;-69
2023/03/30 06:19:45;;;;;;;;;;;40.40;50.20;;;;;;5090946;28;20000;-68
2023/03/30 06:22:12;;;;;;;;;;;39.80;52.30;;;;;;5095040;28;19919;-67
2023/03/30 06:24:38;;;;;;;;;;;39.50;51.10;;;;;;5090709;28;19920;-68
2023/03/30 06:27:05;;;;;;;;;;;39.70;52.30;;;;;;5097541;28;20360;-69
2023/03/30 06:29:32;;;;;;;;;;;39.70;46.40;;;;;;5097850;28;20016;-68
2023/03/30 06:31:59;;;;;;;;;;;39.70;44.70;;;;;;5094872;28;19965;-68
2023/03/30 06:34:26;;;;;;;;;;;38.60;45.00;;;;;;5084819;28;19926;-70
2023/03/30 06:36:52;;;;;;;;;;;37.90;46.20;;;;;;5095827;28;20280;-69
2023/03/30 06:39:20;;;;;;;;;;;37.50;45.90;;;;;;5099118;28;19923;-69
2023/03/30 06:41:47;;;;;;;;;;;37.70;46.20;;;;;;5091009;28;19914;-68
2023/03/30 06:44:14;;;;;;;;;;;37.90;46.30;;;;;;5077325;28;19908;-70
2023/03/30 06:46:41;;;;;;;;;;;37.90;45.90;;;;;;5076301;28;19912;-70
2023/03/30 06:49:08;;;;;;;;;;;38.00;45.40;;;;;;5077273;28;19908;-68
2023/03/30 06:51:35;;;;;;;;;;;37.70;46.00;;;;;;5088968;28;19912;-67
2023/03/30 06:54:02;;;;;;;;;;;37.20;46.00;;;;;;5079478;28;20273;-68
2023/03/30 06:56:28;;;;;;;;;;;35.90;46.50;;;;;;5081102;28;19977;-69
2023/03/30 06:58:56;;;;;;;;;;;34.20;47.30;;;;;;5079166;28;19955;-67
2023/03/30 07:01:22;;;;;;;;;;;32.50;49.30;;;;;;5079973;28;19912;-71
2023/03/30 07:03:52;;;;;;;;;;;30.80;50.50;;;;;;5085268;28;19911;-69
2023/03/30 07:06:19;;;;;;;;;;;29.50;52.00;;;;;;5101733;28;20015;-70
2023/03/30 07:08:45;;;;;;;;;;;28.50;52.50;;;;;;5099342;28;19939;-71
2023/03/30 07:11:12;;;;;;;;;;;27.90;53.80;;;;;;5086626;28;19919;-70
2023/03/30 07:13:39;;;;;;;;;;;27.20;54.20;;;;;;5079553;28;19931;-69
2023/03/30 07:16:06;;;;;;;;;;;26.60;54.80;;;;;;5086155;28;19922;-68
2023/03/30 07:18:32;;;;;;;;;;;26.10;54.10;;;;;;5100120;28;19908;-68
2023/03/30 07:20:59;;;;;;;;;;;25.80;55.10;;;;;;5087349;28;19991;-68
2023/03/30 07:23:26;;;;;;;;;;;25.50;55.70;;;;;;5080324;28;19919;-67
2023/03/30 07:25:52;;;;;;;;;;;25.40;56.20;;;;;;5078292;28;20261;-68
2023/03/30 07:28:19;;;;;;;;;;;25.30;56.70;;;;;;5080701;28;19908;-68
2023/03/30 07:30:46;;;;;;;;;;;25.20;57.00;;;;;;5080224;28;19919;-72
2023/03/30 07:33:13;;;;;;;;;;;25.10;57.60;;;;;;5083513;28;19918;-69
2023/03/30 07:35:46;;;;;;;;;;;24.90;57.90;;;;;;5099988;28;19908;-69
2023/03/30 07:38:13;;;;;;;;;;;24.70;57.00;;;;;;5099965;28;20345;-69
2023/03/30 07:40:40;;;;;;;;;;;24.60;57.90;;;;;;5100020;28;19927;-69
2023/03/30 07:43:07;;;;;;;;;;;24.50;58.10;;;;;;5091310;28;19909;-71
2023/03/30 07:45:34;;;;;;;;;;;24.30;58.40;;;;;;5080282;28;19926;-71
2023/03/30 07:48:00;;;;;;;;;;;24.20;59.00;;;;;;5078745;28;19912;-70
2023/03/30 07:50:28;;;;;;;;;;;24.00;59.20;;;;;;5080300;28;19912;-69
2023/03/30 07:52:54;;;;;;;;;;;24.00;59.50;;;;;;5077767;28;19934;-70
2023/03/30 07:55:21;;;;;;;;;;;23.90;60.10;;;;;;5080437;28;19915;-69
2023/03/30 07:57:48;;;;;;;;;;;23.70;61.10;;;;;;5080155;28;19912;-72
2023/03/30 08:00:15;;;;;;;;;;;23.70;61.10;;;;;;5090961;28;19950;-69
2023/03/30 08:02:43;;;;;;;;;;;23.60;60.70;;;;;;5096664;28;20509;-68
2023/03/30 08:05:10;;;;;;;;;;;23.50;62.00;;;;;;5077747;28;19963;-68
2023/03/30 08:07:37;;;;;;;;;;;23.40;61.30;;;;;;5080300;28;20308;-68
2023/03/30 08:10:03;;;;;;;;;;;23.30;61.90;;;;;;5078144;28;20361;-69
2023/03/30 08:12:30;;;;;;;;;;;23.30;61.50;;;;;;5079154;28;19908;-70
2023/03/30 08:14:57;;;;;;;;;;;23.20;61.50;;;;;;5079269;28;19908;-70
2023/03/30 08:17:23;;;;;;;;;;;23.10;61.10;;;;;;5101612;28;19908;-70
2023/03/30 08:19:50;;;;;;;;;;;23.10;61.30;;;;;;5094054;28;19913;-68
2023/03/30 08:22:17;;;;;;;;;;;23.00;61.50;;;;;;5079527;28;19937;-68
2023/03/30 08:24:43;;;;;;;;;;;23.00;61.20;;;;;;5078920;28;20432;-69
2023/03/30 08:27:10;;;;;;;;;;;22.90;60.90;;;;;;5078157;28;19908;-69
2023/03/30 08:29:37;;;;;;;;;;;22.80;61.10;;;;;;5079346;28;20364;-68
2023/03/30 08:32:03;;;;;;;;;;;22.70;61.20;;;;;;5077593;28;19908;-69
2023/03/30 08:34:30;;;;;;;;;;;22.70;61.80;;;;;;5079081;28;19934;-69
2023/03/30 08:36:57;;;;;;;;;;;22.60;63.10;;;;;;5091295;28;19912;-71
2023/03/30 08:39:23;;;;;;;;;;;22.50;63.10;;;;;;5085963;28;19920;-69
2023/03/30 08:42:02;;;;;;;;;;;22.40;62.70;;;;;;5061234;28;19912;-68
2023/03/30 08:44:33;;;;;;;;;;;22.40;62.80;;;;;;5078731;28;20608;-70
2023/03/30 08:47:01;;;;;;;;;;;22.30;63.40;;;;;;5077849;28;19916;-70
2023/03/30 08:49:29;;;;;;;;;;;22.30;63.40;;;;;;5079063;28;19908;-71
2023/03/30 08:51:55;;;;;;;;;;;22.30;63.60;;;;;;5079443;28;20303;-70
2023/03/30 08:54:24;;;;;;;;;;;22.20;63.30;;;;;;5084455;28;20059;-70
2023/03/30 08:57:08;;;;;;;;;;;22.10;63.70;;;;;;5098623;28;19935;-69
2023/03/30 08:59:55;;;;;;;;;;;22.00;63.20;;;;;;5094709;28;19954;-70
2023/03/30 09:02:29;;;;;;;;;;;22.00;63.50;;;;;;5076997;28;19965;-68
2023/03/30 09:05:00;;;;;;;;;;;21.90;63.50;;;;;;5090125;28;20391;-71
2023/03/30 09:07:50;;;;;;;;;;;21.90;63.60;;;;;;5097807;28;19908;-68
2023/03/30 09:10:18;;;;;;;;;;;21.80;63.50;;;;;;5072346;28;19924;-70
2023/03/30 09:12:47;;;;;;;;;;;21.70;63.90;;;;;;5077310;28;20378;-68
2023/03/30 09:15:22;;;;;;;;;;;21.70;64.20;;;;;;5090524;28;19947;-68
2023/03/30 09:17:59;;;;;;;;;;;21.70;64.10;;;;;;5098898;28;19962;-68
2023/03/30 09:20:27;;;;;;;;;;;21.70;64.10;;;;;;5089668;28;19927;-67
2023/03/30 09:22:57;;;;;;;;;;;21.60;64.40;;;;;;5092334;28;19912;-70
2023/03/30 09:25:43;;;;;;;;;;;21.50;64.60;;;;;;5090935;28;20970;-71
2023/03/30 09:28:28;;;;;;;;;;;21.50;64.20;;;;;;5081206;28;19923;-69
2023/03/30 09:31:11;;;;;;;;;;;21.40;64.60;;;;;;5094506;28;19915;-70
2023/03/30 09:33:45;;;;;;;;;;;21.40;64.70;;;;;;5099615;28;20002;-68
2023/03/30 09:36:15;;;;;;;;;;;21.30;64.80;;;;;;5073486;28;19912;-72
2023/03/30 09:38:42;;;;;;;;;;;21.20;64.90;;;;;;5078342;28;19942;-70
2023/03/30 09:41:12;;;;;;;;;;;21.20;65.30;;;;;;5087782;27;19920;-69
2023/03/30 09:43:45;;;;;;;;;;;21.20;65.40;;;;;;5090772;28;19918;-67
2023/03/30 09:46:13;;;;;;;;;;;21.10;65.40;;;;;;5086924;28;20006;-69
2023/03/30 09:48:41;;;;;;;;;;;21.00;65.50;;;;;;5072546;28;19908;-71
2023/03/30 09:51:34;;;;;;;;;;;21.00;65.90;;;;;;5087474;28;20323;-71
2023/03/30 09:54:02;;;;;;;;;;;21.00;66.30;;;;;;5076137;28;19916;-69
2023/03/30 09:56:35;;;;;;;;;;;20.90;66.30;;;;;;5096166;28;19912;-70
2023/03/30 09:59:21;;;;;;;;;;;20.90;66.40;;;;;;5088032;28;19908;-68
2023/03/30 10:01:48;;;;;;;;;;;20.80;66.40;;;;;;5084265;28;20386;-68
2023/03/30 10:04:16;;;;;;;;;;;20.80;66.80;;;;;;5093210;28;19911;-69
2023/03/30 10:06:47;;;;;;;;;;;20.80;67.10;;;;;;5098427;28;19955;-69
2023/03/30 10:09:16;;;;;;;;;;;20.70;67.00;;;;;;5083892;28;19912;-71
2023/03/30 10:11:49;;;;;;;;;;;20.70;67.40;;;;;;5078950;28;20399;-70
2023/03/30 10:14:22;;;;;;;;;;;20.70;67.50;;;;;;5092688;28;19912;-68
2023/03/30 10:16:49;;;;;;;;;;;20.70;67.40;;;;;;5089560;28;20006;-68
2023/03/30 10:19:17;;;;;;;;;;;20.60;68.00;;;;;;5079918;28;19919;-71
2023/03/30 10:21:47;;;;;;;;;;;20.60;68.00;;;;;;5076281;28;20002;-70
2023/03/30 10:24:14;;;;;;;;;;;20.60;67.90;;;;;;5094549;28;19912;-69
2023/03/30 10:26:45;;;;;;;;;;;20.50;68.60;;;;;;5100898;28;20384;-70
2023/03/30 10:29:14;;;;;;;;;;;20.50;69.40;;;;;;5089921;28;19955;-71
2023/03/30 10:31:43;;;;;;;;;;;20.50;69.00;;;;;;5083469;28;19923;-69
2023/03/30 10:34:33;;;;;;;;;;;20.40;68.90;;;;;;5082002;28;19995;-69
2023/03/30 10:37:00;;;;;;;;;;;20.40;69.80;;;;;;5081469;28;19912;-68
2023/03/30 10:39:31;;;;;;;;;;;20.30;69.60;;;;;;5075149;28;19968;-68
2023/03/30 10:42:03;;;;;;;;;;;20.30;70.00;;;;;;5102250;28;19911;-69
2023/03/30 10:44:31;;;;;;;;;;;20.20;70.90;;;;;;5099434;28;19976;-70
2023/03/30 10:47:17;;;;;;;;;;;20.20;70.50;;;;;;5083868;28;20010;-70
2023/03/30 10:49:44;;;;;;;;;;;20.20;70.50;;;;;;5059109;28;19950;-68
2023/03/30 10:52:17;;;;;;;;;;;20.10;70.80;;;;;;5081929;28;19965;-69
2023/03/30 10:54:43;;;;;;;;;;;20.00;71.80;;;;;;5080365;28;19908;-69
2023/03/30 10:57:13;;;;;;;;;;;20.00;72.00;;;;;;5081713;28;19920;-69
2023/03/30 10:59:39;;;;;;;;;;;19.90;73.30;;;;;;5094237;28;19912;-71
2023/03/30 11:02:26;;;;;;;;;;;19.90;73.20;;;;;;5096083;28;19912;-69
2023/03/30 11:05:05;;;;;;;;;;;19.80;73.10;;;;;;5095850;28;19916;-69
2023/03/30 11:07:38;;;;;;;;;;;19.70;72.70;;;;;;5085438;28;19984;-69
2023/03/30 11:10:28;;;;;;;;;;;19.70;74.20;;;;;;5081489;28;19927;-70
2023/03/30 11:13:02;;;;;;;;;;;19.60;73.80;;;;;;5063190;28;19980;-70
2023/03/30 11:15:52;;;;;;;;;;;19.70;72.60;;;;;;5078797;28;20662;-67
2023/03/30 11:18:21;;;;;;;;;;;19.70;73.20;;;;;;5084352;28;20002;-69
2023/03/30 11:20:51;;;;;;;;;;;19.70;73.20;;;;;;5082437;28;19919;-71
2023/03/30 11:23:22;;;;;;;;;;;19.70;72.20;;;;;;5081751;28;19998;-67
2023/03/30 11:25:54;;;;;;;;;;;19.60;72.10;;;;;;5080357;28;19920;-69
2023/03/30 11:28:25;;;;;;;;;;;19.60;72.40;;;;;;5085801;28;19999;-71
2023/03/30 11:30:54;;;;;;;;;;;19.60;73.40;;;;;;5084930;28;19922;-70
2023/03/30 11:33:20;;;;;;;;;;;19.60;73.10;;;;;;5081118;28;19908;-71
2023/03/30 11:35:50;;;;;;;;;;;19.60;72.90;;;;;;5077607;28;19908;-67
2023/03/30 11:38:32;;;;;;;;;;;19.60;72.30;;;;;;5088062;28;19912;-68
2023/03/30 11:41:11;;;;;;;;;;;19.60;72.30;;;;;;5083844;28;20674;-69
2023/03/30 11:43:38;;;;;;;;;;;19.60;72.60;;;;;;5078835;28;19914;-70
2023/03/30 11:46:17;;;;;;;;;;;19.60;73.40;;;;;;5079777;28;19916;-69
2023/03/30 11:48:54;;;;;;;;;;;19.60;73.60;;;;;;5086049;28;20447;-72
2023/03/30 11:51:38;;;;;;;;;;;19.60;72.90;;;;;;5081967;28;19912;-70
2023/03/30 11:54:05;;;;;;;;;;;19.60;73.60;;;;;;5079588;28;19912;-70
2023/03/30 11:56:51;;;;;;;;;;;19.50;73.10;;;;;;5078951;28;19908;-69
2023/03/30 11:59:30;;;;;;;;;;;19.50;73.20;;;;;;5082129;28;19916;-70
2023/03/30 12:01:56;;;;;;;;;;;19.50;74.20;;;;;;5099878;28;19960;-70
2023/03/30 12:04:28;;;;;;;;;;;19.40;73.40;;;;;;5101446;28;19908;-69
2023/03/30 12:06:57;;;;;;;;;;;19.40;74.10;;;;;;5099539;28;20006;-70
2023/03/30 12:09:42;;;;;;;;;;;19.40;74.80;;;;;;5098599;28;19915;-69
2023/03/30 12:12:14;;;;;;;;;;;19.40;74.20;;;;;;5080027;28;19963;-69
2023/03/30 12:14:59;;;;;;;;;;;19.30;73.80;;;;;;5087524;28;19964;-68
2023/03/30 12:17:32;;;;;;;;;;;19.30;74.60;;;;;;5100929;28;20002;-69
2023/03/30 12:20:21;;;;;;;;;;;19.30;74.40;;;;;;5091577;28;19912;-69
2023/03/30 12:23:04;;;;;;;;;;;19.30;74.40;;;;;;5056489;28;20291;-70
2023/03/30 12:26:06;;;;;;;;;;;19.30;74.80;;;;;;5080205;28;19923;-70
2023/03/30 12:28:42;;;;;;;;;;;19.20;74.50;;;;;;5055697;28;19912;-71
2023/03/30 12:31:08;;;;;;;;;;;19.10;75.30;;;;;;5092047;28;19912;-69
2023/03/30 12:33:47;;;;;;;;;;;19.20;75.50;;;;;;5100064;28;20006;-70
2023/03/30 12:36:24;;;;;;;;;;;19.20;76.30;;;;;;5100350;28;19912;-70
2023/03/30 12:38:56;;;;;;;;;;;19.20;75.70;;;;;;5097609;28;20730;-72
2023/03/30 12:41:25;;;;;;;;;;;19.10;75.30;;;;;;5061934;28;19951;-70
2023/03/30 12:43:51;;;;;;;;;;;19.10;75.80;;;;;;5077351;28;20145;-72
2023/03/30 12:46:30;;;;;;;;;;;19.10;76.50;;;;;;5080180;28;19923;-71
2023/03/30 12:48:56;;;;;;;;;;;19.00;75.50;;;;;;5077428;28;19976;-71
2023/03/30 12:51:23;;;;;;;;;;;19.00;75.60;;;;;;5100100;28;19914;-69
2023/03/30 12:53:50;;;;;;;;;;;19.00;76.80;;;;;;5097948;28;19907;-71
2023/03/30 12:56:30;;;;;;;;;;;19.00;76.20;;;;;;5099979;28;19908;-69
2023/03/30 12:58:59;;;;;;;;;;;19.00;76.30;;;;;;5098843;28;20007;-70
2023/03/30 13:01:44;;;;;;;;;;;19.00;76.20;;;;;;5081456;28;19908;-71
2023/03/30 13:04:19;;;;;;;;;;;19.00;75.70;;;;;;5086429;28;20364;-69
2023/03/30 13:06:53;;;;;;;;;;;18.90;75.60;;;;;;5097858;28;20377;-69
2023/03/30 13:09:21;;;;;;;;;;;18.90;76.50;;;;;;5097398;28;20010;-68
2023/03/30 13:11:53;;;;;;;;;;;18.90;76.10;;;;;;5077583;28;19912;-69
2023/03/30 13:14:34;;;;;;;;;;;18.90;75.80;;;;;;5088150;28;20008;-67
2023/03/30 13:17:01;;;;;;;;;;;18.90;76.40;;;;;;5097242;28;20463;-69
2023/03/30 13:19:36;;;;;;;;;;;18.90;76.10;;;;;;5097518;28;20288;-70
2023/03/30 13:22:11;;;;;;;;;;;18.80;77.20;;;;;;5096645;28;19982;-69
2023/03/30 13:24:43;;;;;;;;;;;18.80;76.90;;;;;;5087805;28;19912;-70
2023/03/30 13:27:18;;;;;;;;;;;18.80;76.90;;;;;;5078165;28;19912;-70
2023/03/30 13:30:08;;;;;;;;;;;18.80;77.00;;;;;;5060844;28;20426;-69
2023/03/30 13:32:50;;;;;;;;;;;18.70;77.60;;;;;;5090598;28;19935;-68
2023/03/30 13:35:29;;;;;;;;;;;18.70;77.40;;;;;;5082211;28;19951;-70
2023/03/30 13:38:14;;;;;;;;;;;18.70;77.40;;;;;;5076742;28;19911;-70
2023/03/30 13:40:58;;;;;;;;;;;18.70;77.60;;;;;;5097412;28;19961;-70
2023/03/30 13:43:28;;;;;;;;;;;18.60;78.10;;;;;;5097895;28;19908;-69
2023/03/30 13:46:08;;;;;;;;;;;18.60;78.10;;;;;;5063415;28;19920;-69
2023/03/30 13:48:45;;;;;;;;;;;18.60;78.00;;;;;;5098638;28;20334;-71
2023/03/30 13:51:16;;;;;;;;;;;18.50;77.50;;;;;;5080087;28;19919;-68
2023/03/30 13:54:06;;;;;;;;;;;18.60;78.00;;;;;;5096526;28;19912;-71
2023/03/30 13:56:37;;;;;;;;;;;18.50;78.10;;;;;;5075291;28;19930;-69
2023/03/30 13:59:15;;;;;;;;;;;18.50;77.70;;;;;;5085587;28;19912;-68
2023/03/30 14:01:45;;;;;;;;;;;18.50;78.70;;;;;;5084254;28;19999;-67
2023/03/30 14:04:15;;;;;;;;;;;18.40;78.40;;;;;;5083375;28;19912;-67
2023/03/30 14:06:45;;;;;;;;;;;18.40;78.10;;;;;;5098743;28;19915;-70
2023/03/30 14:09:18;;;;;;;;;;;18.50;78.60;;;;;;5097046;28;19908;-69
2023/03/30 14:11:50;;;;;;;;;;;18.40;78.40;;;;;;5099405;28;20260;-67
2023/03/30 14:14:21;;;;;;;;;;;18.30;78.80;;;;;;5090166;28;19916;-70
2023/03/30 14:16:49;;;;;;;;;;;18.30;79.00;;;;;;5078677;28;19908;-70
2023/03/30 14:19:24;;;;;;;;;;;18.30;79.90;;;;;;5077370;28;19912;-68
2023/03/30 14:21:54;;;;;;;;;;;18.30;78.70;;;;;;5077992;28;19913;-69
2023/03/30 14:24:30;;;;;;;;;;;18.20;78.90;;;;;;5086840;28;20265;-70
2023/03/30 14:27:15;;;;;;;;;;;18.20;78.70;;;;;;5097849;28;19916;-70
2023/03/30 14:29:46;;;;;;;;;;;18.10;78.80;;;;;;5084208;28;19919;-70
2023/03/30 14:32:18;;;;;;;;;;;18.10;79.50;;;;;;5077471;28;19919;-70
2023/03/30 14:34:45;;;;;;;;;;;18.10;79.00;;;;;;5071670;28;19912;-69
2023/03/30 14:37:12;;;;;;;;;;;18.10;79.20;;;;;;5096406;28;19930;-72